createdAt,value
2016-08-23T00:00:27.661Z,50.50
2016-08-23T00:01:25.841Z,50.50
2016-08-23T00:02:25.872Z,50.70
2016-08-23T00:03:23.647Z,50.60
2016-08-23T00:04:32.931Z,50.60
2016-08-23T00:05:33.859Z,50.40
2016-08-23T00:06:38.790Z,50.40
2016-08-23T00:07:29.382Z,50.50
2016-08-23T00:08:32.337Z,50.70
2016-08-23T00:09:29.302Z,50.70
2016-08-23T00:10:33.504Z,50.50
2016-08-23T00:11:34.042Z,50.50
2016-08-23T00:12:32.133Z,50.90
2016-08-23T00:13:43.335Z,50.50
2016-08-23T00:14:32.708Z,50.40
2016-08-23T00:15:25.922Z,50.50
2016-08-23T00:16:34.027Z,50.50
2016-08-23T00:17:23.889Z,50.40
2016-08-23T00:18:32.873Z,50.40
2016-08-23T00:19:32.696Z,50.60
2016-08-23T00:20:24.173Z,50.90
2016-08-23T00:21:29.274Z,50.50
2016-08-23T00:22:37.195Z,50.50
2016-08-23T00:23:27.545Z,50.60
2016-08-23T00:24:30.344Z,50.50
2016-08-23T00:25:27.155Z,50.50
2016-08-23T00:26:33.303Z,50.80
2016-08-23T00:27:24.174Z,50.50
2016-08-23T00:28:37.560Z,50.50
2016-08-23T00:29:31.602Z,50.60
2016-08-23T00:30:35.109Z,51.00
2016-08-23T00:31:28.653Z,50.50
2016-08-23T00:32:37.566Z,50.50
2016-08-23T00:33:29.066Z,50.40
2016-08-23T00:34:32.907Z,50.30
2016-08-23T00:35:34.882Z,50.50
2016-08-23T00:36:27.931Z,is
2016-08-23T00:37:28.018Z,50.40
2016-08-23T00:38:33.465Z,50.40
2016-08-23T00:39:27.330Z,50.30
2016-08-23T00:40:32.240Z,50.50
2016-08-23T00:41:26.200Z,50.70
2016-08-23T00:42:32.280Z,50.50
2016-08-23T00:43:27.337Z,50.60
2016-08-23T00:44:33.629Z,50.50
2016-08-23T00:45:37.376Z,50.50
2016-08-23T00:46:27.071Z,50.40
2016-08-23T00:47:31.953Z,50.30
2016-08-23T00:48:37.759Z,50.30
2016-08-23T00:49:32.174Z,50.50
2016-08-23T00:50:38.437Z,50.20
2016-08-23T00:51:39.291Z,50.30
2016-08-23T00:52:27.317Z,49.50
2016-08-23T00:53:29.629Z,50.20
2016-08-23T00:54:33.610Z,50.30
2016-08-23T00:55:28.265Z,50.30
2016-08-23T00:56:28.951Z,50.10
2016-08-23T00:57:26.407Z,49.70
2016-08-23T00:58:34.681Z,50.50
2016-08-23T00:59:32.537Z,50.40
2016-08-23T01:00:24.852Z,50.20
2016-08-23T01:01:37.329Z,50.30
2016-08-23T01:02:30.091Z,50.30
2016-08-23T01:03:39.580Z,is
2016-08-23T01:04:39.155Z,50.40
2016-08-23T01:05:24.571Z,50.50
2016-08-23T01:06:28.132Z,50.30
2016-08-23T01:07:35.076Z,50.40
2016-08-23T01:08:32.387Z,50.50
2016-08-23T01:09:44.655Z,50.60
2016-08-23T01:10:28.355Z,50.50
2016-08-23T01:11:34.696Z,50.70
2016-08-23T01:12:33.094Z,50.40
2016-08-23T01:13:33.860Z,50.50
2016-08-23T01:14:29.904Z,50.50
2016-08-23T01:15:34.375Z,50.50
2016-08-23T01:16:29.236Z,50.50
2016-08-23T01:17:34.588Z,50.30
2016-08-23T01:18:33.085Z,50.50
2016-08-23T01:19:33.438Z,50.30
2016-08-23T01:20:33.356Z,50.30
2016-08-23T01:21:38.893Z,50.50
2016-08-23T01:22:32.471Z,is
2016-08-23T01:23:29.237Z,is
2016-08-23T01:24:34.996Z,50.30
2016-08-23T01:25:37.040Z,50.40
2016-08-23T01:26:31.453Z,50.40
2016-08-23T01:27:32.118Z,50.40
2016-08-23T01:28:28.295Z,50.50
2016-08-23T01:29:32.088Z,50.70
2016-08-23T01:30:35.761Z,is
2016-08-23T01:31:46.546Z,50.40
2016-08-23T01:32:29.815Z,50.50
2016-08-23T01:33:43.064Z,50.20
2016-08-23T01:34:42.422Z,50.10
2016-08-23T01:35:30.094Z,50.50
2016-08-23T01:36:28.469Z,50.40
2016-08-23T01:37:28.264Z,50.40
2016-08-23T01:38:33.139Z,50.20
2016-08-23T01:39:34.361Z,50.20
2016-08-23T01:40:31.738Z,50.20
2016-08-23T01:41:33.913Z,50.20
2016-08-23T01:42:35.511Z,50.20
2016-08-23T01:43:26.437Z,50.20
2016-08-23T01:44:28.986Z,50.20
2016-08-23T01:45:24.618Z,50.00
2016-08-23T01:46:35.078Z,50.20
2016-08-23T01:47:37.645Z,50.10
2016-08-23T01:48:28.716Z,50.00
2016-08-23T01:49:30.229Z,50.00
2016-08-23T01:50:33.277Z,is
2016-08-23T01:51:43.861Z,50.10
2016-08-23T01:52:33.686Z,50.40
2016-08-23T01:53:28.523Z,50.40
2016-08-23T01:54:38.747Z,50.30
2016-08-23T01:55:29.202Z,50.50
2016-08-23T01:56:24.831Z,50.40
2016-08-23T01:57:34.275Z,50.20
2016-08-23T01:58:27.795Z,50.30
2016-08-23T01:59:28.885Z,50.30
2016-08-23T02:00:42.088Z,50.50
2016-08-23T02:01:42.818Z,49.40
2016-08-23T02:02:28.524Z,50.50
2016-08-23T02:03:34.244Z,50.50
2016-08-23T02:04:26.428Z,50.20
2016-08-23T02:05:33.225Z,50.00
2016-08-23T02:06:27.734Z,50.40
2016-08-23T02:07:25.344Z,50.10
2016-08-23T02:08:43.209Z,50.40
2016-08-23T02:09:28.366Z,50.30
2016-08-23T02:10:31.901Z,50.50
2016-08-23T02:11:29.801Z,50.50
2016-08-23T02:12:24.365Z,50.20
2016-08-23T02:13:28.617Z,50.40
2016-08-23T02:14:28.839Z,50.30
2016-08-23T02:15:27.686Z,50.30
2016-08-23T02:16:29.278Z,50.10
2016-08-23T02:17:34.304Z,50.40
2016-08-23T02:18:31.395Z,50.30
2016-08-23T02:19:29.168Z,50.00
2016-08-23T02:20:34.705Z,50.20
2016-08-23T02:21:31.956Z,50.20
2016-08-23T02:22:32.527Z,50.40
2016-08-23T02:23:36.424Z,50.40
2016-08-23T02:24:35.890Z,is
2016-08-23T02:25:33.561Z,50.20
2016-08-23T02:26:28.331Z,49.90
2016-08-23T02:27:26.858Z,50.00
2016-08-23T02:28:33.716Z,50.10
2016-08-23T02:29:30.379Z,50.00
2016-08-23T02:30:27.807Z,49.90
2016-08-23T02:31:39.535Z,50.00
2016-08-23T02:32:29.399Z,50.20
2016-08-23T02:33:29.283Z,50.00
2016-08-23T02:34:25.095Z,50.10
2016-08-23T02:35:35.742Z,50.10
2016-08-23T02:36:32.791Z,50.00
2016-08-23T02:37:24.993Z,50.00
2016-08-23T02:38:30.558Z,50.00
2016-08-23T02:39:28.875Z,is
2016-08-23T02:40:34.111Z,50.10
2016-08-23T02:41:38.236Z,50.00
2016-08-23T02:42:31.181Z,49.90
2016-08-23T02:43:34.649Z,50.10
2016-08-23T02:44:39.294Z,49.80
2016-08-23T02:45:24.129Z,49.40
2016-08-23T02:46:29.697Z,50.20
2016-08-23T02:47:38.005Z,50.00
2016-08-23T02:48:36.861Z,50.10
2016-08-23T02:49:32.466Z,49.70
2016-08-23T02:50:37.414Z,is
2016-08-23T02:51:27.584Z,49.90
2016-08-23T02:52:43.430Z,49.20
2016-08-23T02:53:27.297Z,49.90
2016-08-23T02:54:33.120Z,50.10
2016-08-23T02:55:28.874Z,49.90
2016-08-23T02:56:31.909Z,49.90
2016-08-23T02:57:31.108Z,49.90
2016-08-23T02:58:30.761Z,49.80
2016-08-23T02:59:28.926Z,49.90
2016-08-23T03:00:33.008Z,49.70
2016-08-23T03:01:38.090Z,49.80
2016-08-23T03:02:30.467Z,49.90
2016-08-23T03:03:39.569Z,50.20
2016-08-23T03:04:32.276Z,49.60
2016-08-23T03:05:34.194Z,49.50
2016-08-23T03:06:40.713Z,49.70
2016-08-23T03:07:28.331Z,49.50
2016-08-23T03:08:33.117Z,49.50
2016-08-23T03:09:27.193Z,49.50
2016-08-23T03:10:33.159Z,49.50
2016-08-23T03:11:30.276Z,49.70
2016-08-23T03:12:27.769Z,49.80
2016-08-23T03:13:23.812Z,49.60
2016-08-23T03:14:33.405Z,49.60
2016-08-23T03:15:39.971Z,49.50
2016-08-23T03:16:34.481Z,49.80
2016-08-23T03:17:29.486Z,49.60
2016-08-23T03:18:32.089Z,49.70
2016-08-23T03:19:34.514Z,49.70
2016-08-23T03:20:26.343Z,49.60
2016-08-23T03:21:34.755Z,49.60
2016-08-23T03:22:28.059Z,49.60
2016-08-23T03:23:28.667Z,49.60
2016-08-23T03:24:30.452Z,49.80
2016-08-23T03:25:30.116Z,49.60
2016-08-23T03:26:34.602Z,49.80
2016-08-23T03:27:28.669Z,49.70
2016-08-23T03:28:28.988Z,49.50
2016-08-23T03:29:36.317Z,49.60
2016-08-23T03:30:37.128Z,49.60
2016-08-23T03:31:26.653Z,49.80
2016-08-23T03:32:34.666Z,49.80
2016-08-23T03:33:37.332Z,49.60
2016-08-23T03:34:35.048Z,49.90
2016-08-23T03:35:28.714Z,49.50
2016-08-23T03:36:37.948Z,49.70
2016-08-23T03:37:34.719Z,49.60
2016-08-23T03:38:34.005Z,49.60
2016-08-23T03:39:32.775Z,49.70
2016-08-23T03:40:32.531Z,49.50
2016-08-23T03:41:27.605Z,49.80
2016-08-23T03:42:32.743Z,49.70
2016-08-23T03:43:34.986Z,49.70
2016-08-23T03:44:28.459Z,49.60
2016-08-23T03:45:42.332Z,50.10
2016-08-23T03:46:30.854Z,49.50
2016-08-23T03:47:32.272Z,49.90
2016-08-23T03:48:32.645Z,49.60
2016-08-23T03:49:29.702Z,49.60
2016-08-23T03:50:37.706Z,48.60
2016-08-23T03:51:39.505Z,49.80
2016-08-23T03:52:29.044Z,50.00
2016-08-23T03:53:48.265Z,49.60
2016-08-23T03:54:29.616Z,49.70
2016-08-23T03:55:27.197Z,49.70
2016-08-23T03:56:33.026Z,49.80
2016-08-23T03:57:34.138Z,50.10
2016-08-23T03:58:28.383Z,49.60
2016-08-23T03:59:39.385Z,50.00
2016-08-23T04:00:30.079Z,49.90
2016-08-23T04:01:33.475Z,49.80
2016-08-23T04:02:28.374Z,49.70
2016-08-23T04:03:43.528Z,49.60
2016-08-23T04:04:24.842Z,49.70
2016-08-23T04:05:33.852Z,49.80
2016-08-23T04:06:33.632Z,49.60
2016-08-23T04:07:38.030Z,49.80
2016-08-23T04:08:30.026Z,49.50
2016-08-23T04:09:33.485Z,49.50
2016-08-23T04:10:38.022Z,49.60
2016-08-23T04:11:33.781Z,49.50
2016-08-23T04:12:34.493Z,50.00
2016-08-23T04:13:27.377Z,49.60
2016-08-23T04:14:35.286Z,49.50
2016-08-23T04:15:29.889Z,49.40
2016-08-23T04:16:33.987Z,49.50
2016-08-23T04:17:35.119Z,49.90
2016-08-23T04:18:20.544Z,49.70
2016-08-23T04:19:34.481Z,49.40
2016-08-23T04:20:28.202Z,49.60
2016-08-23T04:21:25.735Z,49.40
2016-08-23T04:22:28.028Z,49.50
2016-08-23T04:23:28.665Z,is
2016-08-23T04:24:26.951Z,49.60
2016-08-23T04:25:39.275Z,49.40
2016-08-23T04:26:33.834Z,49.70
2016-08-23T04:27:28.582Z,49.70
2016-08-23T04:28:34.531Z,49.60
2016-08-23T04:29:36.060Z,49.50
2016-08-23T04:30:26.886Z,49.90
2016-08-23T04:31:32.968Z,49.40
2016-08-23T04:32:38.698Z,49.40
2016-08-23T04:33:33.912Z,49.40
2016-08-23T04:34:31.233Z,49.30
2016-08-23T04:35:29.663Z,49.40
2016-08-23T04:36:30.444Z,49.60
2016-08-23T04:37:41.904Z,49.40
2016-08-23T04:38:32.050Z,49.30
2016-08-23T04:39:39.886Z,49.50
2016-08-23T04:40:31.424Z,49.60
2016-08-23T04:41:29.519Z,49.40
2016-08-23T04:42:35.007Z,49.90
2016-08-23T04:43:34.632Z,49.50
2016-08-23T04:44:30.518Z,49.80
2016-08-23T04:45:34.954Z,49.50
2016-08-23T04:46:40.941Z,49.80
2016-08-23T04:47:33.176Z,49.50
2016-08-23T04:48:28.757Z,49.30
2016-08-23T04:49:34.302Z,49.50
2016-08-23T04:50:28.843Z,49.40
2016-08-23T04:51:23.712Z,is
2016-08-23T04:52:35.318Z,49.50
2016-08-23T04:53:41.895Z,49.70
2016-08-23T04:54:32.876Z,49.50
2016-08-23T04:55:33.535Z,49.60
2016-08-23T04:56:32.317Z,49.80
2016-08-23T04:57:28.498Z,49.50
2016-08-23T04:58:27.702Z,49.60
2016-08-23T04:59:34.421Z,49.70
2016-08-23T05:00:30.872Z,49.50
2016-08-23T05:01:34.679Z,49.50
2016-08-23T05:02:32.500Z,49.80
2016-08-23T05:03:25.323Z,49.10
2016-08-23T05:04:27.779Z,49.60
2016-08-23T05:05:27.764Z,49.50
2016-08-23T05:06:26.593Z,49.30
2016-08-23T05:07:38.321Z,49.40
2016-08-23T05:08:33.594Z,49.40
2016-08-23T05:09:28.853Z,49.40
2016-08-23T05:10:28.083Z,49.20
2016-08-23T05:11:34.188Z,49.20
2016-08-23T05:12:28.819Z,49.30
2016-08-23T05:13:29.169Z,49.20
2016-08-23T05:14:29.156Z,49.50
2016-08-23T05:15:41.976Z,49.40
2016-08-23T05:16:27.920Z,49.10
2016-08-23T05:17:38.114Z,49.80
2016-08-23T05:18:28.116Z,49.40
2016-08-23T05:19:33.133Z,49.90
2016-08-23T05:20:33.359Z,49.70
2016-08-23T05:21:27.967Z,49.60
2016-08-23T05:22:28.816Z,49.50
2016-08-23T05:23:33.325Z,49.50
2016-08-23T05:24:33.626Z,49.40
2016-08-23T05:25:26.305Z,49.50
2016-08-23T05:26:35.387Z,49.50
2016-08-23T05:27:44.016Z,49.40
2016-08-23T05:28:29.474Z,49.30
2016-08-23T05:29:25.827Z,49.70
2016-08-23T05:30:28.429Z,49.70
2016-08-23T05:31:29.232Z,49.30
2016-08-23T05:32:34.203Z,49.50
2016-08-23T05:33:31.619Z,49.50
2016-08-23T05:34:29.448Z,49.40
2016-08-23T05:35:34.959Z,49.50
2016-08-23T05:36:26.135Z,49.30
2016-08-23T05:37:26.446Z,49.30
2016-08-23T05:38:26.176Z,49.30
2016-08-23T05:39:30.892Z,49.40
2016-08-23T05:40:43.858Z,49.40
2016-08-23T05:41:28.612Z,49.20
2016-08-23T05:42:28.181Z,49.30
2016-08-23T05:43:28.327Z,49.50
2016-08-23T05:44:25.852Z,49.40
2016-08-23T05:45:28.420Z,49.30
2016-08-23T05:46:30.445Z,49.40
2016-08-23T05:47:28.441Z,49.40
2016-08-23T05:48:25.087Z,49.50
2016-08-23T05:49:34.104Z,49.20
2016-08-23T05:50:29.855Z,49.70
2016-08-23T05:51:37.035Z,49.50
2016-08-23T05:52:41.543Z,49.70
2016-08-23T05:53:33.564Z,49.60
2016-08-23T05:54:24.506Z,49.60
2016-08-23T05:55:36.683Z,49.50
2016-08-23T05:56:34.210Z,49.40
2016-08-23T05:57:31.911Z,49.20
2016-08-23T05:58:31.464Z,49.30
2016-08-23T05:59:28.330Z,49.30
2016-08-23T06:00:25.286Z,49.50
2016-08-23T06:01:34.929Z,49.30
2016-08-23T06:02:29.647Z,49.30
2016-08-23T06:03:43.914Z,49.20
2016-08-23T06:04:35.633Z,49.50
2016-08-23T06:05:33.624Z,49.60
2016-08-23T06:06:29.402Z,49.50
2016-08-23T06:07:29.190Z,49.50
2016-08-23T06:08:34.210Z,49.50
2016-08-23T06:09:25.901Z,49.40
2016-08-23T06:10:28.827Z,49.90
2016-08-23T06:11:27.414Z,49.50
2016-08-23T06:12:32.900Z,is
2016-08-23T06:13:48.658Z,48.90
2016-08-23T06:14:42.547Z,49.70
2016-08-23T06:15:34.714Z,49.70
2016-08-23T06:16:33.911Z,49.50
2016-08-23T06:17:28.784Z,49.60
2016-08-23T06:18:34.670Z,49.50
2016-08-23T06:19:33.924Z,49.50
2016-08-23T06:20:34.376Z,49.50
2016-08-23T06:21:27.307Z,is
2016-08-23T06:22:35.016Z,49.70
2016-08-23T06:23:29.016Z,49.80
2016-08-23T06:24:43.147Z,50.00
2016-08-23T06:25:28.601Z,50.00
2016-08-23T06:26:36.418Z,50.30
2016-08-23T06:27:29.304Z,50.50
2016-08-23T06:28:33.725Z,50.60
2016-08-23T06:29:34.357Z,50.50
2016-08-23T06:30:28.428Z,50.60
2016-08-23T06:31:33.983Z,is
2016-08-23T06:32:27.537Z,50.00
2016-08-23T06:33:28.829Z,50.50
2016-08-23T06:34:36.943Z,50.60
2016-08-23T06:35:27.627Z,50.60
2016-08-23T06:36:29.370Z,50.50
2016-08-23T06:37:33.394Z,50.50
2016-08-23T06:38:24.950Z,50.60
2016-08-23T06:39:29.091Z,50.00
2016-08-23T06:40:28.974Z,50.50
2016-08-23T06:41:25.967Z,50.50
2016-08-23T06:42:21.466Z,is
2016-08-23T06:43:20.974Z,50.70
2016-08-23T06:44:22.695Z,50.60
2016-08-23T06:45:21.687Z,50.70
2016-08-23T06:46:20.428Z,50.80
2016-08-23T06:47:26.712Z,50.70
2016-08-23T06:48:22.787Z,50.80
2016-08-23T06:49:29.627Z,50.70
2016-08-23T06:50:36.436Z,50.70
2016-08-23T06:51:34.604Z,50.80
2016-08-23T06:52:45.667Z,50.90
2016-08-23T06:53:43.116Z,50.90
2016-08-23T06:54:42.419Z,50.80
2016-08-23T06:55:38.428Z,50.90
2016-08-23T06:56:31.394Z,50.90
2016-08-23T06:57:29.503Z,51.00
2016-08-23T06:58:28.161Z,50.70
2016-08-23T06:59:25.281Z,50.80
2016-08-23T07:00:29.454Z,51.00
2016-08-23T07:01:35.209Z,51.00
2016-08-23T07:02:15.072Z,50.90
2016-08-23T07:03:30.810Z,50.90
2016-08-23T07:04:30.712Z,51.00
2016-08-23T07:05:27.645Z,51.10
2016-08-23T07:06:33.126Z,51.10
2016-08-23T07:07:26.617Z,51.10
2016-08-23T07:08:26.939Z,is
2016-08-23T07:09:24.951Z,51.10
2016-08-23T07:10:23.357Z,51.20
2016-08-23T07:11:22.444Z,51.10
2016-08-23T07:12:14.319Z,is
2016-08-23T07:13:22.243Z,51.30
2016-08-23T07:14:12.820Z,is
2016-08-23T07:15:26.460Z,51.30
2016-08-23T07:16:27.101Z,51.20
2016-08-23T07:17:28.406Z,51.30
2016-08-23T07:18:25.241Z,51.30
2016-08-23T07:19:23.884Z,51.50
2016-08-23T07:20:21.812Z,51.20
2016-08-23T07:21:28.347Z,51.30
2016-08-23T07:22:23.038Z,51.30
2016-08-23T07:23:33.809Z,51.40
2016-08-23T07:24:29.241Z,is
2016-08-23T07:25:27.656Z,51.50
2016-08-23T07:26:29.878Z,51.80
2016-08-23T07:27:29.359Z,51.70
2016-08-23T07:28:34.956Z,51.60
2016-08-23T07:29:27.769Z,is
2016-08-23T07:30:27.911Z,51.50
2016-08-23T07:31:33.445Z,51.70
2016-08-23T07:32:37.662Z,50.60
2016-08-23T07:33:31.955Z,50.50
2016-08-23T07:34:29.192Z,51.00
2016-08-23T07:35:28.057Z,51.30
2016-08-23T07:36:34.030Z,51.60
2016-08-23T07:37:26.371Z,51.50
2016-08-23T07:38:28.037Z,51.60
2016-08-23T07:39:32.171Z,52.00
2016-08-23T07:40:34.111Z,52.10
2016-08-23T07:41:32.435Z,52.30
2016-08-23T07:42:30.334Z,52.30
2016-08-23T07:43:34.112Z,52.40
2016-08-23T07:44:34.857Z,52.50
2016-08-23T07:45:26.185Z,52.70
2016-08-23T07:46:36.781Z,51.60
2016-08-23T07:47:28.115Z,52.40
2016-08-23T07:48:36.099Z,is
2016-08-23T07:49:34.209Z,52.50
2016-08-23T07:50:28.170Z,52.30
2016-08-23T07:51:28.326Z,52.40
2016-08-23T07:52:32.864Z,52.30
2016-08-23T07:53:32.888Z,52.30
2016-08-23T07:54:34.212Z,52.30
2016-08-23T07:55:29.471Z,52.30
2016-08-23T07:56:33.699Z,52.30
2016-08-23T07:57:28.331Z,52.20
2016-08-23T07:58:29.383Z,52.30
2016-08-23T07:59:26.330Z,52.30
2016-08-23T08:00:29.290Z,52.20
2016-08-23T08:01:27.643Z,52.20
2016-08-23T08:02:25.139Z,52.20
2016-08-23T08:03:25.168Z,52.20
2016-08-23T08:04:26.860Z,52.00
2016-08-23T08:05:31.049Z,52.00
2016-08-23T08:06:28.574Z,52.10
2016-08-23T08:07:28.197Z,52.00
2016-08-23T08:08:26.213Z,52.00
2016-08-23T08:09:28.350Z,52.00
2016-08-23T08:10:32.567Z,52.00
2016-08-23T08:11:30.265Z,52.00
2016-08-23T08:12:30.573Z,52.00
2016-08-23T08:13:26.935Z,52.00
2016-08-23T08:14:32.185Z,52.00
2016-08-23T08:15:32.887Z,51.90
2016-08-23T08:16:32.966Z,51.90
2016-08-23T08:17:29.766Z,51.90
2016-08-23T08:18:29.910Z,51.80
2016-08-23T08:19:28.885Z,51.90
2016-08-23T08:20:34.253Z,51.80
2016-08-23T08:21:29.218Z,51.80
2016-08-23T08:22:28.041Z,51.90
2016-08-23T08:23:31.299Z,51.80
2016-08-23T08:24:26.432Z,51.70
2016-08-23T08:25:27.513Z,51.80
2016-08-23T08:26:38.636Z,51.80
2016-08-23T08:27:39.571Z,51.90
2016-08-23T08:28:27.339Z,51.70
2016-08-23T08:29:32.464Z,51.40
2016-08-23T08:30:32.065Z,49.90
2016-08-23T08:31:34.737Z,49.40
2016-08-23T08:32:29.762Z,49.10
2016-08-23T08:34:27.591Z,48.40
2016-08-23T08:35:35.310Z,48.50
2016-08-23T08:36:27.662Z,48.60
2016-08-23T08:37:24.784Z,48.20
2016-08-23T08:38:27.937Z,47.30
2016-08-23T08:39:38.222Z,47.50
2016-08-23T08:40:25.146Z,47.60
2016-08-23T08:41:35.057Z,47.30
2016-08-23T08:42:33.931Z,47.00
2016-08-23T08:43:28.971Z,46.90
2016-08-23T08:44:38.061Z,47.40
2016-08-23T08:45:33.663Z,47.40
2016-08-23T08:46:27.517Z,47.60
2016-08-23T08:47:27.850Z,48.00
2016-08-23T08:48:35.810Z,47.90
2016-08-23T08:49:26.809Z,47.90
2016-08-23T08:50:27.652Z,47.80
2016-08-23T08:51:36.922Z,46.90
2016-08-23T08:52:34.516Z,47.00
2016-08-23T08:53:33.509Z,47.00
2016-08-23T08:54:37.455Z,47.20
2016-08-23T08:55:30.397Z,47.30
2016-08-23T08:56:34.957Z,47.00
2016-08-23T08:57:33.904Z,47.00
2016-08-23T08:58:27.243Z,47.00
2016-08-23T08:59:33.226Z,47.00
2016-08-23T09:00:34.133Z,47.10
2016-08-23T09:01:55.968Z,47.20
2016-08-23T09:02:30.260Z,47.50
2016-08-23T09:03:33.924Z,47.20
2016-08-23T09:04:36.319Z,47.50
2016-08-23T09:05:26.746Z,47.70
2016-08-23T09:06:24.628Z,47.50
2016-08-23T09:07:23.926Z,47.30
2016-08-23T09:08:26.362Z,47.00
2016-08-23T09:09:27.709Z,47.00
2016-08-23T09:10:52.183Z,47.00
2016-08-23T09:11:42.466Z,46.80
2016-08-23T09:12:29.544Z,46.90
2016-08-23T09:13:39.072Z,46.90
2016-08-23T09:14:43.672Z,46.80
2016-08-23T09:15:40.797Z,46.90
2016-08-23T09:16:34.704Z,47.00
2016-08-23T09:17:38.251Z,46.80
2016-08-23T09:18:33.122Z,46.90
2016-08-23T09:19:34.229Z,47.00
2016-08-23T09:20:37.213Z,47.00
2016-08-23T09:21:25.288Z,46.90
2016-08-23T09:22:32.900Z,46.90
2016-08-23T09:24:32.248Z,47.00
2016-08-23T09:25:32.590Z,47.20
2016-08-23T09:26:40.784Z,47.20
2016-08-23T09:29:34.536Z,47.70
2016-08-23T09:31:27.182Z,47.00
2016-08-23T09:32:28.310Z,47.70
2016-08-23T09:33:34.552Z,47.80
2016-08-23T09:34:32.606Z,47.90
2016-08-23T09:35:38.951Z,48.00
2016-08-23T09:36:35.239Z,48.00
2016-08-23T09:38:30.568Z,48.00
2016-08-23T09:39:26.944Z,48.00
2016-08-23T09:40:26.957Z,48.20
2016-08-23T09:41:40.692Z,48.10
2016-08-23T09:42:34.523Z,48.10
2016-08-23T09:43:33.100Z,48.10
2016-08-23T09:44:28.737Z,48.20
2016-08-23T09:45:32.446Z,48.30
2016-08-23T09:46:25.289Z,48.50
2016-08-23T09:47:31.938Z,48.60
2016-08-23T09:48:35.862Z,48.50
2016-08-23T09:49:31.646Z,48.50
2016-08-23T09:50:29.604Z,48.40
2016-08-23T09:51:35.597Z,48.60
2016-08-23T09:52:28.349Z,48.60
2016-08-23T09:53:36.464Z,48.50
2016-08-23T09:54:30.405Z,48.50
2016-08-23T09:55:30.914Z,48.50
2016-08-23T09:56:41.511Z,48.70
2016-08-23T09:57:35.897Z,48.70
2016-08-23T09:58:29.076Z,48.70
2016-08-23T09:59:36.349Z,48.90
2016-08-23T10:00:40.402Z,48.60
2016-08-23T10:01:59.363Z,48.80
2016-08-23T10:02:48.960Z,49.00
2016-08-23T10:03:28.386Z,is
2016-08-23T10:04:44.370Z,49.20
2016-08-23T10:05:42.134Z,49.00
2016-08-23T10:06:31.896Z,49.10
2016-08-23T10:07:45.289Z,49.00
2016-08-23T10:10:35.318Z,48.80
2016-08-23T10:11:15.224Z,48.70
2016-08-23T10:12:01.295Z,48.90
2016-08-23T10:12:33.590Z,48.70
2016-08-23T10:13:48.514Z,48.80
2016-08-23T10:14:35.512Z,48.80
2016-08-23T10:15:33.631Z,48.60
2016-08-23T10:16:29.456Z,48.40
2016-08-23T10:17:33.779Z,48.40
2016-08-23T10:18:38.070Z,48.60
2016-08-23T10:19:38.989Z,48.50
2016-08-23T10:20:31.402Z,48.30
2016-08-23T10:21:25.332Z,48.50
2016-08-23T10:22:28.520Z,48.30
2016-08-23T10:23:33.700Z,48.00
2016-08-23T10:24:33.871Z,48.00
2016-08-23T10:25:30.539Z,47.90
2016-08-23T10:26:40.887Z,47.80
2016-08-23T10:27:42.641Z,47.30
2016-08-23T10:28:29.696Z,47.80
2016-08-23T10:29:34.172Z,47.50
2016-08-23T10:30:35.179Z,47.30
2016-08-23T10:31:48.104Z,47.90
2016-08-23T10:32:33.304Z,is
2016-08-23T10:33:36.004Z,47.30
2016-08-23T10:34:29.559Z,47.10
2016-08-23T10:35:30.572Z,47.20
2016-08-23T10:36:27.982Z,47.20
2016-08-23T10:37:30.446Z,47.30
2016-08-23T10:38:52.416Z,47.10
2016-08-23T10:39:46.318Z,47.10
2016-08-23T10:40:35.935Z,47.10
2016-08-23T10:41:41.359Z,47.20
2016-08-23T10:42:55.449Z,47.30
2016-08-23T10:43:52.906Z,47.60
2016-08-23T10:44:32.973Z,47.70
2016-08-23T10:46:34.113Z,47.90
2016-08-23T10:47:29.863Z,48.10
2016-08-23T10:48:36.020Z,47.70
2016-08-23T10:49:30.675Z,47.90
2016-08-23T10:50:33.031Z,47.80
2016-08-23T10:51:29.045Z,47.20
2016-08-23T10:52:34.674Z,47.60
2016-08-23T10:53:33.682Z,47.60
2016-08-23T10:54:28.725Z,47.20
2016-08-23T10:55:32.361Z,47.60
2016-08-23T10:56:39.127Z,47.20
2016-08-23T10:57:27.068Z,47.30
2016-08-23T10:58:34.043Z,47.30
2016-08-23T10:59:27.333Z,47.70
2016-08-23T11:00:32.439Z,47.60
2016-08-23T11:01:28.200Z,47.80
2016-08-23T11:02:29.340Z,48.20
2016-08-23T11:03:37.794Z,47.30
2016-08-23T11:04:37.876Z,47.30
2016-08-23T11:05:28.965Z,47.60
2016-08-23T11:06:34.663Z,47.70
2016-08-23T11:07:29.387Z,47.50
2016-08-23T11:08:34.297Z,47.70
2016-08-23T11:09:34.545Z,47.60
2016-08-23T11:10:42.904Z,47.70
2016-08-23T11:11:32.814Z,47.80
2016-08-23T11:12:28.527Z,47.50
2016-08-23T11:13:35.261Z,47.70
2016-08-23T11:14:33.957Z,47.90
2016-08-23T11:15:34.540Z,47.40
2016-08-23T11:16:48.391Z,47.30
2016-08-23T11:17:45.247Z,47.90
2016-08-23T11:19:02.392Z,47.30
2016-08-23T11:19:27.139Z,47.90
2016-08-23T11:20:46.006Z,47.60
2016-08-23T11:21:57.041Z,47.80
2016-08-23T11:23:28.978Z,48.00
2016-08-23T11:24:15.613Z,48.00
2016-08-23T11:24:37.158Z,47.90
2016-08-23T11:25:29.419Z,47.70
2016-08-23T11:26:28.884Z,47.80
2016-08-23T11:27:34.418Z,47.50
2016-08-23T11:28:22.386Z,47.40
2016-08-23T11:29:40.917Z,47.40
2016-08-23T11:30:38.877Z,47.70
2016-08-23T11:31:34.308Z,47.50
2016-08-23T11:32:39.031Z,47.70
2016-08-23T11:33:32.193Z,47.30
2016-08-23T11:34:30.568Z,47.40
2016-08-23T11:35:44.539Z,is
2016-08-23T11:37:40.974Z,47.30
2016-08-23T11:38:26.776Z,47.50
2016-08-23T11:39:29.801Z,47.50
2016-08-23T11:40:37.229Z,47.50
2016-08-23T11:41:46.091Z,47.50
2016-08-23T11:43:31.677Z,48.00
2016-08-23T11:44:37.594Z,47.80
2016-08-23T11:45:30.542Z,47.90
2016-08-23T11:46:24.712Z,47.80
2016-08-23T11:47:28.082Z,48.00
2016-08-23T11:48:40.336Z,48.20
2016-08-23T11:49:34.980Z,47.90
2016-08-23T11:50:35.282Z,47.80
2016-08-23T11:51:25.641Z,47.90
2016-08-23T11:53:36.131Z,47.90
2016-08-23T11:54:27.709Z,48.00
2016-08-23T11:55:33.589Z,48.30
2016-08-23T11:56:27.943Z,48.10
2016-08-23T11:57:48.847Z,48.00
2016-08-23T11:58:37.906Z,48.20
2016-08-23T12:00:37.382Z,48.10
2016-08-23T12:01:30.117Z,48.30
2016-08-23T12:02:29.914Z,48.30
2016-08-23T12:03:43.105Z,48.30
2016-08-23T12:04:42.830Z,48.30
2016-08-23T12:05:33.606Z,48.40
2016-08-23T12:06:43.894Z,is
2016-08-23T12:08:44.260Z,48.50
2016-08-23T12:09:49.822Z,48.50
2016-08-23T12:10:33.591Z,48.40
2016-08-23T12:11:40.775Z,48.50
2016-08-23T12:12:40.555Z,48.60
2016-08-23T12:14:38.093Z,48.40
2016-08-23T12:15:30.736Z,48.30
2016-08-23T12:16:28.924Z,48.30
2016-08-23T12:17:40.877Z,48.40
2016-08-23T12:18:31.976Z,48.50
2016-08-23T12:19:53.349Z,48.50
2016-08-23T12:20:44.946Z,48.50
2016-08-23T12:21:43.300Z,48.60
2016-08-23T12:22:35.188Z,48.50
2016-08-23T12:23:34.390Z,48.40
2016-08-23T12:24:34.517Z,48.50
2016-08-23T12:25:35.875Z,48.50
2016-08-23T12:26:30.155Z,48.60
2016-08-23T12:27:26.443Z,48.80
2016-08-23T12:29:32.861Z,48.80
2016-08-23T12:30:39.682Z,48.80
2016-08-23T12:31:27.530Z,48.80
2016-08-23T12:32:41.230Z,49.00
2016-08-23T12:33:39.731Z,48.70
2016-08-23T12:34:34.255Z,48.80
2016-08-23T12:35:47.315Z,49.20
2016-08-23T12:36:50.521Z,49.10
2016-08-23T12:38:33.860Z,49.10
2016-08-23T12:39:34.944Z,49.20
2016-08-23T12:39:53.199Z,49.20
2016-08-23T12:40:36.209Z,49.20
2016-08-23T12:41:27.855Z,49.20
2016-08-23T12:42:34.921Z,49.20
2016-08-23T12:43:43.737Z,49.30
2016-08-23T12:44:33.646Z,49.20
2016-08-23T12:45:41.763Z,49.10
2016-08-23T12:46:43.213Z,49.00
2016-08-23T12:48:49.585Z,49.20
2016-08-23T12:49:34.129Z,49.20
2016-08-23T12:50:29.874Z,49.20
2016-08-23T12:51:30.254Z,49.20
2016-08-23T12:52:34.016Z,49.20
2016-08-23T12:53:30.772Z,49.20
2016-08-23T12:54:29.769Z,49.00
2016-08-23T12:55:37.749Z,49.00
2016-08-23T12:56:38.297Z,49.00
2016-08-23T12:57:37.999Z,49.10
2016-08-23T12:58:31.729Z,49.00
2016-08-23T13:01:41.694Z,49.20
2016-08-23T13:04:43.009Z,49.10
2016-08-23T13:05:34.919Z,49.00
2016-08-23T13:06:44.267Z,49.10
2016-08-23T13:07:34.884Z,49.70
2016-08-23T13:08:34.120Z,49.20
2016-08-23T13:09:31.179Z,48.90
2016-08-23T13:10:29.385Z,49.20
2016-08-23T13:11:37.747Z,49.30
2016-08-23T13:12:29.072Z,49.50
2016-08-23T13:13:32.429Z,49.60
2016-08-23T13:14:22.514Z,49.50
2016-08-23T13:15:27.313Z,49.20